Airports

 


Airport Name Latest METAR Visual Conditions
Cincinnati/Northern Kentucky International (CVG) KCVG 262052Z 27016G22KT 10SM FEW065 SCT080 BKN300 19/04 A2989 RMK AO2 PK WND 28027/2040 SLP116 T01940044 55001 VFR
John Glenn Columbus International (CMH) KCMH 262051Z 27015KT 10SM BKN095 19/05 A2981 RMK AO2 PK WND 26026/1952 SLP093 VCSH T01890050 53006 VISNO NW VFR
Yeager (CRW) KCRW 262054Z 31009G17KT 10SM FEW075 SCT100 21/06 A2984 RMK AO2 SLP099 T02060061 55000 $ VFR
James M Cox Dayton International (DAY) KDAY 262056Z 27017G26KT 10SM FEW060 OVC090 18/04 A2987 RMK AO2 PK WND 27026/2052 CIG 075 RWY 6L SLP111 T01830039 53005 VFR
Evansville Regional (EVV) KEVV 262054Z 33009KT 300V360 10SM CLR 21/03 A2998 RMK AO2 SLP151 T02110028 55003 $ VFR
Indianapolis International (IND) KIND 262054Z 28016G22KT 10SM SCT070 BKN250 19/03 A2991 RMK AO2 PK WND 29026/2035 SLP125 T01890033 55000 VFR
Blue Grass (LEX) KLEX 262054Z 29007KT 10SM SCT070 19/04 A2992 RMK AO2 SLP127 T01940039 55001 VFR
Louisville Muhammad Ali International (SDF) KSDF 262056Z 29015KT 10SM FEW070 BKN280 22/04 A2993 RMK AO2 PK WND 27026/2035 SLP131 T02170044 55003 VFR
Anderson Municipal-Darlington Field (AID) KAID 261955Z 28013KT 10SM M 19/01 A2988 VFR
Columbus Municipal (BAK) KBAK 262045Z 27015G22KT 10SM SCT060 SCT070 19/03 A2992 VFR
Monroe County (BMG) KBMG 262053Z 29009G18KT 10SM FEW065 19/03 A2993 RMK AO2 SLP132 T01940033 55003 VFR
Wright-Patterson Air Force Base (FFO) KFFO 262055Z AUTO 27010G21KT 10SM FEW070 OVC090 18/04 A2982 RMK AO2 SLP100 T01770039 53006 VFR
Godman Army Airfield (FTK) KFTK 262055Z AUTO 26012G18KT 10SM CLR 20/04 A2992 RMK AO2 SLP132 T02020038 55005 VFR
Himsel Army Airfield (HBE) No weather for this Airport Unknown
Tri-State/Milton J Ferguson Field (HTS) KHTS 262051Z 25011G18KT 10SM FEW065 FEW080 SCT095 22/05 A2985 RMK AO2 SLP105 T02170050 55001 $ VFR
Terre Haute Regional (HUF) KHUF 262053Z 29014G23KT 10SM CLR 21/03 A2994 RMK AO2 SLP136 T02060028 56003 VFR
Wilmington Air Park (ILN) KILN 262054Z AUTO 28012G21KT 10SM BKN085 18/03 A2987 RMK AO2 PK WND 28026/2025 SLP114 T01830028 53005 VFR
Rickenbacker International (LCK) KLCK 262055Z AUTO 28013KT 10SM BKN095 19/04 A2983 RMK AO2 T01860035 VFR
Bowman Field (LOU) KLOU 262053Z 27015G23KT 10SM SCT070 22/04 A2992 RMK AO2 SLP128 T02170039 55004 VFR
Cincinnati Municipal Airport Lunken Field (LUK) KLUK 262053Z 26013G21KT 10SM FEW075 SCT090 21/04 A2989 RMK AO2 SLP120 T02060044 51001 VFR
Delaware County Regional (MIE) KMIE 262053Z 29017G26KT 10SM SCT055 OVC090 21/04 A2986 RMK AO2 PK WND 28026/2051 SLP106 T02060039 53002 VFR
Ohio State University (OSU) KOSU 262053Z 28015G24KT 10SM FEW060 BKN090 19/05 A2983 RMK AO2 PK WND 29027/2008 SLP097 60000 T01890050 53007 VFR
Owensboro-Daviess County Regional (OWB) KOWB 262056Z 30014KT 10SM CLR 21/03 A2997 RMK AO2 SLP149 T02110028 56001 VFR
Mid-Ohio Valley Regional (PKB) KPKB 262053Z 30008G22KT 10SM SCT090 19/04 A2982 RMK AO2 SLP096 T01940044 51005 VFR
Bolton Field (TZR) KTZR 262047Z 29012G19KT 10SM SCT070 BKN090 18/06 A2983 VFR
Middlesboro-Bell County (1A6) K1A6 262115Z AUTO 28005KT 10SM CLR 22/07 A2993 RMK AO2 T02200068 VFR
Georgetown-Scott County Regional (27K) K27K 210615Z AUTO 00000KT 10SM CLR 17/16 A3001 RMK AO1 VFR
Madisonville Regional (2I0) K2I0 262115Z AUTO 31008G17KT 10SM CLR 23/M02 A2999 RMK AO2 T02341017 VFR
Mason County (3I2) K3I2 081730Z AUTO 00000KT 10SM SCT031 SCT037 26/16 A2999 RMK AO2 T02590158 VFR
Knox County (4I3) K4I3 262115Z AUTO 31012G22KT 7SM RA SCT045 BKN050 BKN070 11/08 A2985 RMK AO2 LTG DSNT E AND P0001 VFR
Lebanon Springfield-George Hoerter Field (6I2) K6I2 262115Z AUTO 29010G16KT 10SM CLR 20/03 A2995 RMK AO2 VFR
Logan County (6L4) K6L4 262115Z AUTO 23010G19KT 190V260 10SM FEW065 SCT075 20/04 A2987 RMK AO2 VFR
Livingston Municipal (8A3) K8A3 262115Z AUTO 32009G15KT 10SM CLR 21/02 A2995 RMK A01 VFR
Kee Field (I16) KI16 191546Z AUTO 10SM SCT110 26/18 A3012 RMK AO2 VFR
Greene County-Lewis A Jackson Regional (I19) KI19 262115Z AUTO 27012G20KT 10SM OVC090 18/04 A2986 RMK AO2 VFR
Fayette County (I23) KI23 262115Z AUTO 26012G21KT 10SM CLR 18/02 A2985 RMK AO1 VFR
Tucker-Guthrie Memorial (I35) KI35 262115Z AUTO 30008KT 10SM BKN060 21/06 A2993 RMK AO2 T02050061 VFR
James A Rhodes (I43) KI43 081635Z AUTO 22008KT 10SM CLR 30/23 A3010 RMK AO2 VFR
Cincinnati West (I67) KI67 262115Z AUTO 29009G14KT 10SM SCT070 SCT080 BKN085 18/03 A2990 RMK AO1 VFR
Clermont County (I69) KI69 262115Z AUTO 29009G18KT 10SM SCT085 19/03 A2990 RMK AO2 T01860034 VFR
Grimes Field (I74) KI74 262115Z AUTO 27008G16KT 226V306 10SM 16/07 A2985 RMK AO2 VFR
Hancock Co-Ron Lewis Field (KY8) KKY8 262115Z AUTO 28008G16KT 250V310 9SM CLR 21/05 A2997 RMK A01 VFR
Brazil Clay County (0I2) No weather for this Airport Unknown
Cynthiana-Harrison County (0I8) No weather for this Airport Unknown
Holmes County (10G) No weather for this Airport Unknown
Ona Airpark (12V) No weather for this Airport Unknown
Mc Creary County (18I) No weather for this Airport Unknown
Casey Municipal (1H8) No weather for this Airport Unknown
Jamestown Municipal (2A1) No weather for this Airport Unknown
Hendricks County-Gordon Graham Fld (2R2) No weather for this Airport Unknown
Sky King (3I3) No weather for this Airport Unknown
Dayton-Phillipsburg (3I7) No weather for this Airport Unknown
Morrow County (4I9) No weather for this Airport Unknown
Sheridan (5I4) No weather for this Airport Unknown
Indianapolis Downtown (8A4) No weather for this Airport Unknown
Piqua Airport- Hartzell Field (I17) No weather for this Airport Unknown
Jackson County (I18) No weather for this Airport Unknown
Randolph County (I22) No weather for this Airport Unknown
Greensburg Municipalcipal (I34) No weather for this Airport Unknown
Richard Downing (I40) No weather for this Airport Unknown
Clinton Field (I66) No weather for this Airport Unknown
Warren County/John Lane Field (I68) No weather for this Airport Unknown
Perry County (I86) No weather for this Airport Unknown
Breckinridge County (I93) No weather for this Airport Unknown
Hardin County (I95) No weather for this Airport Unknown
Russell County (K24) No weather for this Airport Unknown
Gene Snyder (K62) No weather for this Airport Unknown
Leitchfield-Grayson Co (M20) No weather for this Airport Unknown
Taylor County (AAS) KAAS 262115Z AUTO 29009G17KT 230V320 10SM SCT075 A2999 RMK AO1 VFR
Mount Carmel Municipal (AJG) KAJG 262115Z AUTO 28015G19KT 10SM CLR 21/02 A2998 RMK AO2 T02050018 VFR
Alexander Salamon (AMT) No weather for this Airport Unknown
Lima Allen County (AOH) No weather for this Airport Unknown
Neil Armstrong (AXV) KAXV 262115Z AUTO 27013G21KT 10SM SCT048 SCT060 OVC085 16/06 A2984 RMK AO2 VFR
Virgil I Grissom Municipal (BFR) No weather for this Airport Unknown
Raleigh County Memorial (BKW) KBKW 262051Z AUTO 29009KT 10SM BKN060 BKN075 17/05 A2989 RMK AO2 PK WND 28026/2033 SLP107 T01670050 55000 VFR
Mercer County (BLF) KBLF 262052Z AUTO 30009G15KT 280V340 10SM SCT060 16/06 A2991 RMK AO2 SLP109 T01560056 57000 VFR
Samuels Field (BRY) KBRY 262115Z AUTO 29009KT 10SM FEW070 21/05 A2992 RMK AO2 T02060047 $ VFR
Williamsburg-Whitley County (BYL) KBYL 262115Z AUTO 31005KT 10SM CLR 20/05 A2994 RMK AO1 VFR
Mettel Field (CEV) No weather for this Airport Unknown
Crawfordsville Regional (CFJ) KCFJ 262115Z AUTO 29014G19KT 10SM SCT060 17/00 A2992 RMK AO2 T01711002 VFR
Wendell H Ford (CPF) No weather for this Airport Unknown
Lakefield (CQA) No weather for this Airport Unknown
Carmi Municipal (CUL) No weather for this Airport Unknown
Pickaway County Memorial (CYO) No weather for this Airport Unknown
Daviess County (DCY) KDCY 262110Z AUTO 31010G16KT 10SM CLR 20/03 A2996 RMK AO2 T01950025 VFR
Delaware Municipal - Jim Moore Field (DLZ) No weather for this Airport Unknown
Stuart Powell Field (DVK) KDVK 262110Z AUTO 30011G14KT 10SM SCT070 20/03 A2995 RMK AO2 VFR
Ashland Regional (DWU) No weather for this Airport Unknown
Appalachian Regional (EBD) No weather for this Airport Unknown
Bellefontaine Regional (EDJ) No weather for this Airport Unknown
Henderson City-County (EHR) KEHR 262056Z AUTO 30014KT 10SM CLR 21/01 A2999 RMK AO2 SLP154 T02110011 56002 VFR
Wayne County (EKQ) No weather for this Airport Unknown
Addington Field (EKX) No weather for this Airport Unknown
Pike County (EOP) No weather for this Airport Unknown
Eagle Creek Airpark (EYE) No weather for this Airport Unknown
Capital City (FFT) No weather for this Airport Unknown
Fleming-Mason (FGX) KFGX 262115Z AUTO 30015G18KT 10SM SCT065 SCT085 SCT090 19/04 A2991 RMK AO2 T01900038 VFR
French Lick Municipal (FRH) No weather for this Airport Unknown
Gallia-Meigs Regional (GAS) No weather for this Airport Unknown
Brown County (GEO) No weather for this Airport Unknown
Shelbyville Municipal (GEZ) No weather for this Airport Unknown
Putnam County Regional (GPC) KGPC 262115Z AUTO 29015G20KT 10SM SCT065 19/03 A2993 RMK AO2 T01890028 VFR
Butler Co Regional-Hogan Field (HAO) No weather for this Airport Unknown
Indy South Greenwood (HFY) KHFY 262115Z AUTO 30008G18KT 10SM SCT065 SCT080 20/06 A2992 RMK AO2 T01970059 VFR
Huntingburg (HNB) KHNB 262056Z AUTO 30015G20KT 10SM CLR 21/04 A2996 RMK AO2 SLP144 T02110039 55002 VFR
Highland County (HOC) No weather for this Airport Unknown
Madison Municipal (IMS) No weather for this Airport Unknown
Mount Sterling-Montgomery County (IOB) KIOB 262115Z AUTO 31008KT 10SM SCT070 BKN090 19/05 A2993 RMK AO2 PWINO VFR
Julian Carroll (JKL) No weather for this Airport Unknown
Ohio County (JQD) No weather for this Airport Unknown
Clark Regional (JVY) KJVY 262115Z AUTO 29010G15KT 10SM CLR 21/04 A2993 RMK AO2 PWINO VFR
Fairfield County (LHQ) KLHQ 262053Z AUTO 27014G22KT 10SM FEW075 SCT095 19/04 A2983 RMK AO2 SLP098 T01940039 53004 VFR
Lonesome Pine (LNP) No weather for this Airport Unknown
London-Corbin Arpt-Magee Field (LOZ) KLOZ 262053Z AUTO 30010G17KT 10SM CLR 21/04 A2993 RMK AO2 SLP126 T02110044 55004 VFR
Lawrenceville-Vincennes International (LWV) No weather for this Airport Unknown
Dayton-Wright Brothers (MGY) KMGY 262053Z AUTO 28014G20KT 10SM OVC085 18/03 A2986 RMK AO2 SLP109 T01830033 53003 VFR
Indianapolis Regional (MQJ) No weather for this Airport Unknown
Union County (MRT) KMRT 262119Z AUTO 29007G14KT 10SM SCT060 BKN070 OVC090 15/07 A2985 RMK AO1 VFR
Middletown Regional/Hook Field (MWO) KMWO 262115Z AUTO 26013G18KT 10SM SCT075 BKN090 19/04 A2989 RMK AO2 T01890036 VFR
North Vernon (OVO) No weather for this Airport Unknown
Miami University (OXD) KOXD 262115Z AUTO 28013G21KT 10SM SCT060 SCT070 OVC080 20/01 A2989 RMK AO2 T02030010 VFR
Pike County-Hatcher Field (PBX) KPBX 262115Z AUTO 26010G15KT 230V290 10SM SCT075 SCT085 19/05 A2989 RMK AO2 T01920048 VFR
Greater Portsmouth Regional (PMH) KPMH 262115Z AUTO 28004KT 10SM CLR 21/01 A2988 RMK AO2 T02100006 VFR
Edgar County (PRG) No weather for this Airport Unknown
Central Kentucky Regional (RGA) KRGA 262118Z AUTO 28011G15KT 10SM SCT070 21/04 A2994 RMK AO2 VFR
Richmond Municipal (RID) KRID 262115Z AUTO 28013G21KT 10SM SCT070 BKN080 16/06 A2989 RMK AO2 VFR
Crawford Co (RSV) KRSV 262115Z AUTO 29014G18KT 10SM CLR 19/03 A2997 RMK AO2 T01870029 VFR
Ross County (RZT) KRZT 262115Z AUTO 28010G23KT 10SM SCT090 19/00 A2985 RMK AO2 PWINO VFR
Sidney Municipal (SCA) No weather for this Airport Unknown
Scott Municipal (SCX) KSCX 262115Z AUTO VRB06G15KT 10SM CLR 21/03 A2995 RMK A01 VFR
Freeman Municipal (SER) No weather for this Airport Unknown
Springfield-Beckley Municipal (SGH) No weather for this Airport Unknown
Sullivan County (SIV) No weather for this Airport Unknown
Big Sandy Regional (SJS) KSJS 262115Z AUTO 30011G18KT 10SM SCT075 21/04 A2990 RMK AO2 T02090040 VFR
Lake Cumberland Regional (SME) No weather for this Airport Unknown
Summersville (SXL) No weather for this Airport Unknown
Morehead-Rowan County Clyde A Thomas Regional (SYM) KSYM 262115Z AUTO 29008G14KT 260V320 10SM BKN070 BKN080 20/03 A2991 RMK AO2 VFR
Perry County Municipal (TEL) No weather for this Airport Unknown
Sturgis Municipal (TWT) No weather for this Airport Unknown
Indianapolis Executive (TYQ) KTYQ 262115Z AUTO 28015G19KT 10SM SCT070 BKN080 18/05 A2991 RMK AO2 T01750046 VFR
Indianapolis Metropolitan (UMP) No weather for this Airport Unknown
Ohio University (UNI) KUNI 262115Z AUTO 26013G19KT 10SM SCT100 20/04 A2984 RMK AO2 T02010041 VFR
Boggs Field (USW) No weather for this Airport Unknown
New Castle Henry County Marlatt Field (UWL) No weather for this Airport Unknown
Madison County (UYF) KUYF 262115Z AUTO 27008KT 10SM SCT055 OVC085 17/02 A2985 RMK AO2 LTG DSNT NE VFR
Darke County (VES) KVES 262115Z AUTO 29012G18KT 7SM SCT060 OVC085 16/02 A2986 RMK AO2 VFR
Newark-Heath (VTA) KVTA 262054Z AUTO 27015G20KT 10SM BKN090 20/05 A2981 RMK AO2 SLP090 T02000050 53006 VFR
Zanesville Municipal (ZZV) KZZV 262053Z AUTO 27012G21KT 10SM FEW070 FEW090 18/03 A2980 RMK AO2 SLP088 T01830033 53005 $ VFR
Fry (0OH8) No weather for this Airport Unknown
Fayette County Memorial Hospital (11OH) No weather for this Airport Unknown
Uk Hospital (37KY) No weather for this Airport Unknown
Andy Barnhart Memorial (3OH0) No weather for this Airport Unknown
Red Stewart Airfield (40I) No weather for this Airport Unknown
Medical Center Albany (45KY) No weather for this Airport Unknown
Westlake Regional Hospital (48KY) No weather for this Airport Unknown
Manchester Memorial Hospital (4KY2) No weather for this Airport Unknown
Bethesda Hospital Helistop (4OH2) No weather for this Airport Unknown
Appalachian Regional Hospital (51KY) No weather for this Airport Unknown
Bedford Medical Center (57IN) No weather for this Airport Unknown
Union Hospital (60II) No weather for this Airport Unknown
Skydive Greene County Inc (7OA7) No weather for this Airport Unknown
Methodist Hospital Of In Inc (81II) No weather for this Airport Unknown
Saint Joseph Hospital (88KY) No weather for this Airport Unknown
Riverside Methodist Hospital (9OI9) No weather for this Airport Unknown
Dahio Trotwood (I44) No weather for this Airport Unknown
Mad River Airpark (I54) No weather for this Airport Unknown
Moraine Air Park (I73) No weather for this Airport Unknown
Alexandria (I99) No weather for this Airport Unknown
Decatur County Memorial Hospital (IN35) No weather for this Airport Unknown
Reid Hospital (IN68) No weather for this Airport Unknown
Ball Memorial Hospital (IN74) No weather for this Airport Unknown
Iu Health Morgan (IN84) No weather for this Airport Unknown
Grant Medical Center (OH01) No weather for this Airport Unknown
Knox Communicipalty Hospital (OH04) No weather for this Airport Unknown
O'Bleness Memorial Hospital (OH23) No weather for this Airport Unknown
Schaney'S Lair (OH46) No weather for this Airport Unknown
Southern Ohio Regional Medical Center (OH62) No weather for this Airport Unknown
Troy Skypark (OH71) No weather for this Airport Unknown
Nationwide Children'S Hospital (OI95) No weather for this Airport Unknown